Terminal Aerodrome Forecast
Issued by NWS King Salmon, AK

Home | Current Version | Previous Version | Text Only | Print | Product List | Glossary On
Versions: 1 2 3 4 5 6 7 8 9 10 11 12 13 14 15 16 17 18 19 20
000
FTAK31 PANC 201736
TAFAKN
TAF
PAKN 201736Z 2018/2118 36012KT P6SM FEW015
      TEMPO 2018/2020 BKN015
     FM210000 36014KT P6SM SKC
     FM210300 36008KT P6SM SKC
     FM211200 VRB04KT P6SM BKN100 OVC120=

USA.gov is the U.S. government's official web portal to all federal, state and local government web resources and services.